CheckWX is a tool to help pilots better visualize weather data.  It is not intended as a substitute for an official pre-flight weather briefing.

08:15:27 UTC

MPSM TAF
Scarlett Martínez International Airport
Río Hato, Panama
TAF MPSM 212230Z 2200/2306 05008KT 9999 SCT020 TEMPO 2218/2222 33012KT

Feb-22@
00:00 UTC

Feb-22 @ 00:00 UTC

Feb-23@
06:00 UTC

Feb-23 @ 06:00 UTC

TAF MPSM 212230Z 2200/2306 05008KT 9999 SCT020
Wind
  • 050° at 8 KTS
Cloud Levels
  • Scattered at 2,000' AGL

Feb-22@
18:00 UTC

Feb-22 @ 18:00 UTC

Feb-22@
22:00 UTC

Feb-22 @ 22:00 UTC

TEMPO 2218/2222 33012KT

Temporary

TemporaryChanges expected for less than half the time period

Wind
  • 330° at 12 KTS